sensor_id;sensor_type;location;lat;lon;timestamp;P1;durP1;ratioP1;P2;durP2;ratioP2
57071;SDS011;42956;51.366;11.298;2023-12-20T12:49:47;9.20;;;2.80;;
57071;SDS011;42956;51.366;11.298;2023-12-20T12:52:19;10.15;;;3.17;;
57071;SDS011;42956;51.366;11.298;2023-12-20T12:54:50;7.15;;;2.88;;
57071;SDS011;42956;51.366;11.298;2023-12-20T12:57:20;9.10;;;3.33;;
57071;SDS011;42956;51.366;11.298;2023-12-20T12:59:50;7.32;;;2.40;;
57071;SDS011;42956;51.366;11.298;2023-12-20T13:02:20;5.82;;;2.97;;
57071;SDS011;42956;51.366;11.298;2023-12-20T13:04:52;8.65;;;2.85;;
57071;SDS011;42956;51.366;11.298;2023-12-20T13:07:22;9.25;;;3.05;;
57071;SDS011;42956;51.366;11.298;2023-12-20T13:09:52;5.50;;;2.38;;
57071;SDS011;42956;51.366;11.298;2023-12-20T13:12:22;14.27;;;2.92;;
57071;SDS011;42956;51.366;11.298;2023-12-20T13:14:52;4.43;;;2.50;;
57071;SDS011;42956;51.366;11.298;2023-12-20T13:17:22;10.15;;;3.50;;
57071;SDS011;42956;51.366;11.298;2023-12-20T13:19:57;7.25;;;3.75;;
57071;SDS011;42956;51.366;11.298;2023-12-20T13:22:27;5.03;;;3.00;;
57071;SDS011;42956;51.366;11.298;2023-12-20T13:24:58;4.43;;;2.50;;
57071;SDS011;42956;51.366;11.298;2023-12-20T13:30:00;3.92;;;2.33;;
57071;SDS011;42956;51.366;11.298;2023-12-20T13:32:30;7.65;;;2.38;;
57071;SDS011;42956;51.366;11.298;2023-12-20T13:35:03;3.50;;;2.35;;
57071;SDS011;42956;51.366;11.298;2023-12-20T13:37:34;8.70;;;2.60;;
57071;SDS011;42956;51.366;11.298;2023-12-20T13:40:04;5.35;;;3.30;;
57071;SDS011;42956;51.366;11.298;2023-12-20T13:42:34;5.05;;;3.03;;
57071;SDS011;42956;51.366;11.298;2023-12-20T13:45:05;5.65;;;2.67;;
57071;SDS011;42956;51.366;11.298;2023-12-20T13:47:35;5.93;;;2.28;;
57071;SDS011;42956;51.366;11.298;2023-12-20T13:50:09;8.98;;;3.15;;
57071;SDS011;42956;51.366;11.298;2023-12-20T13:52:39;8.88;;;2.45;;
57071;SDS011;42956;51.366;11.298;2023-12-20T13:55:09;3.45;;;2.13;;
57071;SDS011;42956;51.366;11.298;2023-12-20T13:57:39;7.32;;;2.85;;
57071;SDS011;42956;51.366;11.298;2023-12-20T14:00:21;7.35;;;3.33;;
57071;SDS011;42956;51.366;11.298;2023-12-20T14:02:51;6.45;;;2.40;;
57071;SDS011;42956;51.366;11.298;2023-12-20T14:05:23;4.68;;;2.20;;
57071;SDS011;42956;51.366;11.298;2023-12-20T14:07:55;6.03;;;2.40;;
57071;SDS011;42956;51.366;11.298;2023-12-20T14:10:27;4.33;;;2.53;;
57071;SDS011;42956;51.366;11.298;2023-12-20T14:12:58;5.43;;;2.58;;
57071;SDS011;42956;51.366;11.298;2023-12-20T14:15:27;5.13;;;2.70;;
57071;SDS011;42956;51.366;11.298;2023-12-20T14:18:04;8.32;;;2.47;;
57071;SDS011;42956;51.366;11.298;2023-12-20T14:20:38;8.75;;;4.57;;
57071;SDS011;42956;51.366;11.298;2023-12-20T14:23:09;12.02;;;4.05;;
57071;SDS011;42956;51.366;11.298;2023-12-20T14:25:40;10.68;;;4.65;;
57071;SDS011;42956;51.366;11.298;2023-12-20T14:28:17;6.55;;;3.50;;
57071;SDS011;42956;51.366;11.298;2023-12-20T14:30:47;6.30;;;2.72;;
57071;SDS011;42956;51.366;11.298;2023-12-20T14:33:18;5.32;;;2.67;;
57071;SDS011;42956;51.366;11.298;2023-12-20T14:35:51;4.10;;;2.35;;
57071;SDS011;42956;51.366;11.298;2023-12-20T14:38:21;7.80;;;2.53;;
57071;SDS011;42956;51.366;11.298;2023-12-20T14:40:51;3.33;;;2.42;;
57071;SDS011;42956;51.366;11.298;2023-12-20T14:43:21;6.95;;;2.50;;
57071;SDS011;42956;51.366;11.298;2023-12-20T14:45:51;2.45;;;2.25;;
57071;SDS011;42956;51.366;11.298;2023-12-20T14:48:21;4.97;;;2.42;;
57071;SDS011;42956;51.366;11.298;2023-12-20T14:50:54;4.63;;;2.15;;
57071;SDS011;42956;51.366;11.298;2023-12-20T14:53:24;4.10;;;2.33;;
57071;SDS011;42956;51.366;11.298;2023-12-20T14:55:54;5.28;;;2.05;;
57071;SDS011;42956;51.366;11.298;2023-12-20T14:58:24;3.88;;;2.47;;
57071;SDS011;42956;51.366;11.298;2023-12-20T15:00:56;4.80;;;2.72;;
57071;SDS011;42956;51.366;11.298;2023-12-20T15:03:26;4.85;;;2.45;;
57071;SDS011;42956;51.366;11.298;2023-12-20T15:05:59;9.10;;;3.95;;
57071;SDS011;42956;51.366;11.298;2023-12-20T15:08:30;5.28;;;3.03;;
57071;SDS011;42956;51.366;11.298;2023-12-20T15:10:59;9.13;;;2.88;;
57071;SDS011;42956;51.366;11.298;2023-12-20T15:13:30;9.30;;;4.00;;
57071;SDS011;42956;51.366;11.298;2023-12-20T15:16:01;7.65;;;4.03;;
57071;SDS011;42956;51.366;11.298;2023-12-20T15:18:31;8.85;;;3.85;;
57071;SDS011;42956;51.366;11.298;2023-12-20T15:21:03;12.73;;;4.90;;
57071;SDS011;42956;51.366;11.298;2023-12-20T15:26:03;13.25;;;5.80;;
57071;SDS011;42956;51.366;11.298;2023-12-20T15:28:33;11.18;;;4.28;;
57071;SDS011;42956;51.366;11.298;2023-12-20T15:31:04;9.07;;;3.88;;
57071;SDS011;42956;51.366;11.298;2023-12-20T15:33:36;11.00;;;5.10;;
57071;SDS011;42956;51.366;11.298;2023-12-20T15:36:09;8.55;;;3.97;;
57071;SDS011;42956;51.366;11.298;2023-12-20T15:38:39;8.65;;;3.53;;
57071;SDS011;42956;51.366;11.298;2023-12-20T15:41:09;11.52;;;4.75;;
57071;SDS011;42956;51.366;11.298;2023-12-20T15:43:39;13.18;;;4.63;;
57071;SDS011;42956;51.366;11.298;2023-12-20T15:46:09;12.73;;;5.15;;
57071;SDS011;42956;51.366;11.298;2023-12-20T15:48:36;11.65;;;3.75;;
57071;SDS011;42956;51.366;11.298;2023-12-20T15:51:09;6.78;;;3.38;;
57071;SDS011;42956;51.366;11.298;2023-12-20T15:53:38;6.15;;;3.75;;
57071;SDS011;42956;51.366;11.298;2023-12-20T15:56:09;12.80;;;4.68;;
57071;SDS011;42956;51.366;11.298;2023-12-20T15:58:39;16.23;;;6.07;;
57071;SDS011;42956;51.366;11.298;2023-12-20T16:01:09;16.85;;;7.28;;
57071;SDS011;42956;51.366;11.298;2023-12-20T16:03:39;6.88;;;4.03;;
57071;SDS011;42956;51.366;11.298;2023-12-20T16:06:22;13.65;;;5.65;;
57071;SDS011;42956;51.366;11.298;2023-12-20T16:11:26;8.65;;;4.15;;
57071;SDS011;42956;51.366;11.298;2023-12-20T16:13:56;10.30;;;4.72;;
57071;SDS011;42956;51.366;11.298;2023-12-20T16:16:26;6.13;;;2.95;;
57071;SDS011;42956;51.366;11.298;2023-12-20T16:18:56;16.13;;;6.80;;
57071;SDS011;42956;51.366;11.298;2023-12-20T16:21:29;14.70;;;6.85;;
57071;SDS011;42956;51.366;11.298;2023-12-20T16:23:59;7.03;;;3.55;;
57071;SDS011;42956;51.366;11.298;2023-12-20T16:26:28;5.47;;;2.83;;
57071;SDS011;42956;51.366;11.298;2023-12-20T16:28:58;4.35;;;2.58;;
57071;SDS011;42956;51.366;11.298;2023-12-20T16:31:28;4.22;;;2.00;;
57071;SDS011;42956;51.366;11.298;2023-12-20T16:33:58;4.55;;;2.10;;
57071;SDS011;42956;51.366;11.298;2023-12-20T16:36:48;5.22;;;2.13;;
57071;SDS011;42956;51.366;11.298;2023-12-20T16:39:18;4.18;;;1.88;;
57071;SDS011;42956;51.366;11.298;2023-12-20T16:41:50;4.88;;;2.25;;
57071;SDS011;42956;51.366;11.298;2023-12-20T16:44:20;7.07;;;2.30;;
57071;SDS011;42956;51.366;11.298;2023-12-20T16:46:50;4.72;;;1.83;;
57071;SDS011;42956;51.366;11.298;2023-12-20T16:49:20;2.15;;;1.67;;
57071;SDS011;42956;51.366;11.298;2023-12-20T16:51:52;7.35;;;3.00;;
57071;SDS011;42956;51.366;11.298;2023-12-20T16:54:22;6.78;;;2.70;;
57071;SDS011;42956;51.366;11.298;2023-12-20T16:56:52;5.53;;;3.05;;
57071;SDS011;42956;51.366;11.298;2023-12-20T16:59:22;6.03;;;2.78;;
57071;SDS011;42956;51.366;11.298;2023-12-20T17:01:52;3.78;;;2.22;;
57071;SDS011;42956;51.366;11.298;2023-12-20T17:04:22;5.65;;;2.38;;
57071;SDS011;42956;51.366;11.298;2023-12-20T17:06:54;4.07;;;2.40;;
57071;SDS011;42956;51.366;11.298;2023-12-20T17:09:24;2.70;;;2.10;;
57071;SDS011;42956;51.366;11.298;2023-12-20T17:11:57;6.38;;;2.00;;
57071;SDS011;42956;51.366;11.298;2023-12-20T17:14:27;6.13;;;3.00;;
57071;SDS011;42956;51.366;11.298;2023-12-20T17:16:57;17.50;;;8.00;;
57071;SDS011;42956;51.366;11.298;2023-12-20T17:19:27;5.65;;;3.10;;
57071;SDS011;42956;51.366;11.298;2023-12-20T17:22:01;6.32;;;3.38;;
57071;SDS011;42956;51.366;11.298;2023-12-20T17:24:32;5.40;;;4.20;;
57071;SDS011;42956;51.366;11.298;2023-12-20T17:27:02;5.32;;;2.50;;
57071;SDS011;42956;51.366;11.298;2023-12-20T17:29:32;4.47;;;3.15;;
57071;SDS011;42956;51.366;11.298;2023-12-20T17:32:03;6.68;;;4.15;;
57071;SDS011;42956;51.366;11.298;2023-12-20T17:34:34;14.82;;;7.38;;
57071;SDS011;42956;51.366;11.298;2023-12-20T17:37:06;23.60;;;12.52;;
57071;SDS011;42956;51.366;11.298;2023-12-20T17:39:36;27.33;;;12.10;;
57071;SDS011;42956;51.366;11.298;2023-12-20T17:42:06;18.60;;;9.07;;
57071;SDS011;42956;51.366;11.298;2023-12-20T17:44:40;11.88;;;7.95;;
57071;SDS011;42956;51.366;11.298;2023-12-20T17:47:10;11.25;;;6.13;;
57071;SDS011;42956;51.366;11.298;2023-12-20T17:49:40;10.30;;;5.65;;
57071;SDS011;42956;51.366;11.298;2023-12-20T17:52:13;18.00;;;5.50;;
57071;SDS011;42956;51.366;11.298;2023-12-20T17:54:43;5.00;;;3.90;;
57071;SDS011;42956;51.366;11.298;2023-12-20T17:57:13;16.08;;;4.18;;
57071;SDS011;42956;51.366;11.298;2023-12-20T17:59:46;6.00;;;3.92;;
57071;SDS011;42956;51.366;11.298;2023-12-20T18:02:16;7.80;;;3.35;;
57071;SDS011;42956;51.366;11.298;2023-12-20T18:04:45;4.22;;;2.75;;
57071;SDS011;42956;51.366;11.298;2023-12-20T18:07:18;6.75;;;2.95;;
57071;SDS011;42956;51.366;11.298;2023-12-20T18:09:48;4.45;;;2.25;;
57071;SDS011;42956;51.366;11.298;2023-12-20T18:12:18;4.57;;;2.75;;
57071;SDS011;42956;51.366;11.298;2023-12-20T18:14:48;4.10;;;2.25;;
57071;SDS011;42956;51.366;11.298;2023-12-20T18:17:19;5.28;;;2.13;;
57071;SDS011;42956;51.366;11.298;2023-12-20T18:19:49;3.78;;;2.63;;
57071;SDS011;42956;51.366;11.298;2023-12-20T18:22:22;5.60;;;2.83;;
57071;SDS011;42956;51.366;11.298;2023-12-20T18:24:52;11.07;;;3.05;;
57071;SDS011;42956;51.366;11.298;2023-12-20T18:27:22;4.63;;;3.10;;
57071;SDS011;42956;51.366;11.298;2023-12-20T18:29:52;8.52;;;3.30;;
57071;SDS011;42956;51.366;11.298;2023-12-20T18:32:37;6.25;;;3.50;;
57071;SDS011;42956;51.366;11.298;2023-12-20T18:35:08;4.55;;;2.45;;
57071;SDS011;42956;51.366;11.298;2023-12-20T18:37:41;9.35;;;3.83;;
57071;SDS011;42956;51.366;11.298;2023-12-20T18:40:11;5.40;;;3.03;;
57071;SDS011;42956;51.366;11.298;2023-12-20T18:42:41;8.02;;;3.42;;
57071;SDS011;42956;51.366;11.298;2023-12-20T18:45:12;7.90;;;3.00;;
57071;SDS011;42956;51.366;11.298;2023-12-20T18:47:42;6.25;;;3.20;;
57071;SDS011;42956;51.366;11.298;2023-12-20T18:50:13;9.35;;;2.90;;
57071;SDS011;42956;51.366;11.298;2023-12-20T18:52:45;4.60;;;3.38;;
57071;SDS011;42956;51.366;11.298;2023-12-20T18:55:15;5.25;;;2.83;;
57071;SDS011;42956;51.366;11.298;2023-12-20T18:57:45;6.30;;;3.08;;
57071;SDS011;42956;51.366;11.298;2023-12-20T19:00:16;4.70;;;3.03;;
57071;SDS011;42956;51.366;11.298;2023-12-20T19:02:45;6.93;;;2.45;;
57071;SDS011;42956;51.366;11.298;2023-12-20T19:05:15;6.80;;;3.50;;
57071;SDS011;42956;51.366;11.298;2023-12-20T19:07:48;6.13;;;3.20;;
57071;SDS011;42956;51.366;11.298;2023-12-20T19:10:19;8.07;;;3.53;;
57071;SDS011;42956;51.366;11.298;2023-12-20T19:12:51;4.57;;;3.53;;
57071;SDS011;42956;51.366;11.298;2023-12-20T19:15:21;4.32;;;2.75;;
57071;SDS011;42956;51.366;11.298;2023-12-20T19:17:51;5.72;;;3.40;;
57071;SDS011;42956;51.366;11.298;2023-12-20T19:20:21;5.25;;;3.05;;
57071;SDS011;42956;51.366;11.298;2023-12-20T19:22:54;8.55;;;3.28;;
57071;SDS011;42956;51.366;11.298;2023-12-20T19:25:23;7.47;;;3.30;;
57071;SDS011;42956;51.366;11.298;2023-12-20T19:27:53;5.68;;;3.13;;
57071;SDS011;42956;51.366;11.298;2023-12-20T19:30:24;5.40;;;2.95;;
57071;SDS011;42956;51.366;11.298;2023-12-20T19:32:53;12.02;;;3.22;;
57071;SDS011;42956;51.366;11.298;2023-12-20T19:35:23;8.90;;;3.92;;
57071;SDS011;42956;51.366;11.298;2023-12-20T19:37:56;6.82;;;3.95;;
57071;SDS011;42956;51.366;11.298;2023-12-20T19:40:26;7.35;;;3.97;;
57071;SDS011;42956;51.366;11.298;2023-12-20T19:42:56;5.95;;;3.55;;
57071;SDS011;42956;51.366;11.298;2023-12-20T19:45:26;10.32;;;4.35;;
57071;SDS011;42956;51.366;11.298;2023-12-20T19:47:56;3.70;;;3.17;;
57071;SDS011;42956;51.366;11.298;2023-12-20T19:50:26;10.43;;;3.30;;
57071;SDS011;42956;51.366;11.298;2023-12-20T19:52:58;6.93;;;3.25;;
57071;SDS011;42956;51.366;11.298;2023-12-20T19:55:28;16.60;;;4.88;;
57071;SDS011;42956;51.366;11.298;2023-12-20T19:57:59;6.30;;;3.03;;
57071;SDS011;42956;51.366;11.298;2023-12-20T20:00:29;7.10;;;3.40;;
57071;SDS011;42956;51.366;11.298;2023-12-20T20:03:11;10.50;;;3.47;;
57071;SDS011;42956;51.366;11.298;2023-12-20T20:05:41;4.30;;;3.08;;
57071;SDS011;42956;51.366;11.298;2023-12-20T20:08:14;7.03;;;2.83;;
57071;SDS011;42956;51.366;11.298;2023-12-20T20:10:44;5.25;;;3.00;;
57071;SDS011;42956;51.366;11.298;2023-12-20T20:13:13;6.22;;;2.92;;
57071;SDS011;42956;51.366;11.298;2023-12-20T20:15:44;5.35;;;2.92;;
57071;SDS011;42956;51.366;11.298;2023-12-20T20:18:14;4.60;;;3.22;;
57071;SDS011;42956;51.366;11.298;2023-12-20T20:20:45;4.68;;;3.28;;
57071;SDS011;42956;51.366;11.298;2023-12-20T20:23:18;7.82;;;2.58;;
57071;SDS011;42956;51.366;11.298;2023-12-20T20:25:48;4.03;;;2.75;;
57071;SDS011;42956;51.366;11.298;2023-12-20T20:28:20;7.72;;;2.88;;
57071;SDS011;42956;51.366;11.298;2023-12-20T20:30:51;5.40;;;3.10;;
57071;SDS011;42956;51.366;11.298;2023-12-20T20:33:22;3.90;;;2.60;;
57071;SDS011;42956;51.366;11.298;2023-12-20T20:35:52;4.28;;;3.13;;
57071;SDS011;42956;51.366;11.298;2023-12-20T20:38:24;5.38;;;2.65;;
57071;SDS011;42956;51.366;11.298;2023-12-20T20:40:54;6.53;;;2.90;;
57071;SDS011;42956;51.366;11.298;2023-12-20T20:43:25;2.83;;;2.50;;
57071;SDS011;42956;51.366;11.298;2023-12-20T20:45:55;6.88;;;2.78;;
57071;SDS011;42956;51.366;11.298;2023-12-20T20:48:25;6.55;;;2.67;;
57071;SDS011;42956;51.366;11.298;2023-12-20T20:51:06;5.93;;;2.58;;
57071;SDS011;42956;51.366;11.298;2023-12-20T20:53:39;5.95;;;1.67;;
57071;SDS011;42956;51.366;11.298;2023-12-20T20:56:09;5.68;;;1.92;;
57071;SDS011;42956;51.366;11.298;2023-12-20T20:58:39;2.60;;;1.90;;
57071;SDS011;42956;51.366;11.298;2023-12-20T21:01:08;3.80;;;1.88;;
57071;SDS011;42956;51.366;11.298;2023-12-20T21:03:38;3.53;;;1.60;;
57071;SDS011;42956;51.366;11.298;2023-12-20T21:06:08;4.78;;;1.58;;
57071;SDS011;42956;51.366;11.298;2023-12-20T21:08:41;5.50;;;1.75;;
57071;SDS011;42956;51.366;11.298;2023-12-20T21:11:11;2.35;;;1.80;;
57071;SDS011;42956;51.366;11.298;2023-12-20T21:13:45;4.72;;;2.10;;
57071;SDS011;42956;51.366;11.298;2023-12-20T21:16:15;4.00;;;2.00;;
57071;SDS011;42956;51.366;11.298;2023-12-20T21:18:45;6.80;;;1.98;;
57071;SDS011;42956;51.366;11.298;2023-12-20T21:21:15;4.22;;;1.92;;
57071;SDS011;42956;51.366;11.298;2023-12-20T21:23:48;3.00;;;2.22;;
57071;SDS011;42956;51.366;11.298;2023-12-20T21:28:48;4.35;;;2.47;;
57071;SDS011;42956;51.366;11.298;2023-12-20T21:31:17;4.97;;;2.75;;
57071;SDS011;42956;51.366;11.298;2023-12-20T21:33:47;11.15;;;2.50;;
57071;SDS011;42956;51.366;11.298;2023-12-20T21:36:20;2.72;;;2.05;;
57071;SDS011;42956;51.366;11.298;2023-12-20T21:38:52;9.32;;;2.83;;
57071;SDS011;42956;51.366;11.298;2023-12-20T21:41:22;3.90;;;2.78;;
57071;SDS011;42956;51.366;11.298;2023-12-20T21:43:51;5.65;;;2.42;;
57071;SDS011;42956;51.366;11.298;2023-12-20T21:46:21;4.75;;;2.75;;
57071;SDS011;42956;51.366;11.298;2023-12-20T21:48:53;4.38;;;2.13;;
57071;SDS011;42956;51.366;11.298;2023-12-20T21:51:23;4.32;;;1.90;;
57071;SDS011;42956;51.366;11.298;2023-12-20T21:53:55;3.35;;;2.10;;
57071;SDS011;42956;51.366;11.298;2023-12-20T21:56:30;6.10;;;2.25;;
57071;SDS011;42956;51.366;11.298;2023-12-20T21:59:00;6.03;;;2.53;;
57071;SDS011;42956;51.366;11.298;2023-12-20T22:01:30;2.55;;;2.13;;
57071;SDS011;42956;51.366;11.298;2023-12-20T22:04:00;3.85;;;2.25;;
57071;SDS011;42956;51.366;11.298;2023-12-20T22:06:30;3.58;;;2.42;;
57071;SDS011;42956;51.366;11.298;2023-12-20T22:09:02;4.55;;;2.17;;
57071;SDS011;42956;51.366;11.298;2023-12-20T22:11:34;6.38;;;2.20;;
57071;SDS011;42956;51.366;11.298;2023-12-20T22:14:04;6.65;;;2.50;;
57071;SDS011;42956;51.366;11.298;2023-12-20T22:16:34;4.10;;;2.03;;
57071;SDS011;42956;51.366;11.298;2023-12-20T22:19:08;6.35;;;2.88;;
57071;SDS011;42956;51.366;11.298;2023-12-20T22:21:37;3.63;;;1.98;;
57071;SDS011;42956;51.366;11.298;2023-12-20T22:24:10;6.75;;;2.22;;
57071;SDS011;42956;51.366;11.298;2023-12-20T22:26:40;6.45;;;2.72;;
57071;SDS011;42956;51.366;11.298;2023-12-20T22:29:10;7.35;;;2.13;;
57071;SDS011;42956;51.366;11.298;2023-12-20T22:31:40;2.17;;;1.95;;
57071;SDS011;42956;51.366;11.298;2023-12-20T22:34:10;4.32;;;2.25;;
57071;SDS011;42956;51.366;11.298;2023-12-20T22:36:40;10.02;;;2.25;;
57071;SDS011;42956;51.366;11.298;2023-12-20T22:39:13;8.90;;;2.25;;
57071;SDS011;42956;51.366;11.298;2023-12-20T22:41:43;5.57;;;2.47;;
57071;SDS011;42956;51.366;11.298;2023-12-20T22:44:15;3.42;;;2.70;;
57071;SDS011;42956;51.366;11.298;2023-12-20T22:46:45;3.63;;;2.47;;
57071;SDS011;42956;51.366;11.298;2023-12-20T22:49:15;7.50;;;2.30;;
57071;SDS011;42956;51.366;11.298;2023-12-20T22:51:45;4.35;;;2.38;;
57071;SDS011;42956;51.366;11.298;2023-12-20T22:54:18;13.52;;;2.75;;
57071;SDS011;42956;51.366;11.298;2023-12-20T22:56:48;4.90;;;2.50;;
57071;SDS011;42956;51.366;11.298;2023-12-20T22:59:21;4.50;;;2.60;;
57071;SDS011;42956;51.366;11.298;2023-12-20T23:01:52;5.00;;;2.63;;
57071;SDS011;42956;51.366;11.298;2023-12-20T23:04:22;6.80;;;3.00;;
57071;SDS011;42956;51.366;11.298;2023-12-20T23:06:52;4.10;;;2.53;;
57071;SDS011;42956;51.366;11.298;2023-12-20T23:09:25;3.42;;;2.35;;
57071;SDS011;42956;51.366;11.298;2023-12-20T23:11:55;11.45;;;3.40;;
57071;SDS011;42956;51.366;11.298;2023-12-20T23:14:25;5.50;;;2.47;;
57071;SDS011;42956;51.366;11.298;2023-12-20T23:16:55;7.70;;;2.72;;
57071;SDS011;42956;51.366;11.298;2023-12-20T23:19:24;4.97;;;2.25;;
57071;SDS011;42956;51.366;11.298;2023-12-20T23:21:56;4.82;;;2.78;;
57071;SDS011;42956;51.366;11.298;2023-12-20T23:24:28;6.00;;;2.63;;
57071;SDS011;42956;51.366;11.298;2023-12-20T23:26:58;5.05;;;2.38;;
57071;SDS011;42956;51.366;11.298;2023-12-20T23:29:28;2.65;;;2.22;;
57071;SDS011;42956;51.366;11.298;2023-12-20T23:31:58;5.95;;;2.30;;
57071;SDS011;42956;51.366;11.298;2023-12-20T23:34:28;4.28;;;1.92;;
57071;SDS011;42956;51.366;11.298;2023-12-20T23:36:58;3.08;;;2.22;;
57071;SDS011;42956;51.366;11.298;2023-12-20T23:39:30;9.55;;;2.65;;
57071;SDS011;42956;51.366;11.298;2023-12-20T23:42:00;5.43;;;2.50;;
57071;SDS011;42956;51.366;11.298;2023-12-20T23:44:30;3.80;;;2.00;;
57071;SDS011;42956;51.366;11.298;2023-12-20T23:47:00;4.70;;;2.50;;
57071;SDS011;42956;51.366;11.298;2023-12-20T23:49:29;4.38;;;2.00;;
57071;SDS011;42956;51.366;11.298;2023-12-20T23:52:00;5.25;;;2.45;;
57071;SDS011;42956;51.366;11.298;2023-12-20T23:54:32;6.43;;;1.98;;
57071;SDS011;42956;51.366;11.298;2023-12-20T23:57:02;3.17;;;2.28;;
57071;SDS011;42956;51.366;11.298;2023-12-20T23:59:32;3.22;;;1.58;;
